Flight Track Log - Related Links

Times and Time Zones

All times are in EDT time to prevent confusion due to time zone crossing. See the LAN440 flight status page for this flight to view local times or setup timezone preferences in your user account.

Time Position Orientation Groundspeed Altitude Reporting Facility
EDT Latitude Longitude Course Direction KTS MPH feet Rate Location/Type
Sun 11:58:57 AM -34.5730 -58.3890 116° Southeast 173 199 1,000  Level FlightAware
Sun 11:59:02 AM -34.5740 -58.3840 104° East 177 204 1,200 1,200 Climbing FlightAware
Sun 11:59:37 AM -34.5620 -58.3470 69° East 226 260 1,800 1,300 Climbing FlightAware
Sun 12:00:02 PM -34.5480 -58.3160 61° Northeast 266 306 2,500 2,400 Climbing FlightAware
Sun 12:00:32 PM -34.5260 -58.2810 53° Northeast 280 322 4,000 2,800 Climbing FlightAware
Sun 12:00:47 PM -34.5080 -58.2740 18° North 274 315 4,600 2,800 Climbing FlightAware
Sun 12:01:17 PM -34.4740 -58.2900 339° North 271 312 6,100 3,150 Climbing FlightAware
Sun 12:01:27 PM -34.4660 -58.3030 307° West 269 310 6,700 3,400 Climbing FlightAware
Sun 12:01:47 PM -34.4620 -58.3290 281° West 262 302 7,800 3,000 Climbing FlightAware
Sun 12:02:17 PM -34.4650 -58.3740 265° West 268 308 9,200 2,571 Climbing FlightAware
Sun 12:02:57 PM -34.4700 -58.4360 264° West 289 333 10,800 1,886 Climbing FlightAware
Sun 12:03:27 PM -34.4740 -58.4860 264° West 323 372 11,400 1,886 Climbing FlightAware
Sun 12:04:07 PM -34.4800 -58.5590 264° West 336 387 13,000 2,560 Climbing FlightAware
Sun 12:04:42 PM -34.4860 -58.6300 264° West 344 396 14,600 2,400 Climbing FlightAware
Sun 12:05:17 PM -34.4920 -58.6960 264° West 354 407 15,800 2,143 Climbing FlightAware
Sun 12:05:52 PM -34.4980 -58.7670 264° West 362 417 17,100 2,400 Climbing FlightAware
Sun 12:06:27 PM -34.5050 -58.8360 263° West 360 414 18,600 2,240 Climbing FlightAware
Sun 12:07:07 PM -34.5120 -58.9160 264° West 368 423 19,900 2,160 Climbing FlightAware
Sun 12:07:42 PM -34.5190 -58.9910 264° West 369 425 21,300 2,031 Climbing FlightAware
Sun 12:08:12 PM -34.5240 -59.0520 264° West 376 433 22,100 1,760 Climbing FlightAware
Sun 12:08:57 PM -34.5320 -59.1440 264° West 374 430 23,500 1,533 Climbing FlightAware
Sun 12:09:42 PM -34.5410 -59.2420 264° West 392 451 24,400 1,440 Climbing FlightAware
Sun 12:10:12 PM -34.5470 -59.3110 264° West 393 452 25,300 1,650 Climbing FlightAware
Sun 12:11:02 PM -34.5560 -59.4180 264° West 397 457 26,600 1,453 Climbing FlightAware
Sun 12:11:47 PM -34.5640 -59.5180 264° West 402 463 27,600 1,200 Climbing FlightAware
Sun 12:12:22 PM -34.5700 -59.5980 265° West 412 474 28,200 1,000 Climbing FlightAware
Sun 12:13:17 PM -34.5690 -59.7200 271° West 430 495 29,100 988 Climbing FlightAware
Sun 12:13:47 PM -34.5680 -59.7920 271° West 434 499 29,600 1,000 Climbing FlightAware
Sun 12:14:47 PM -34.5650 -59.9380 271° West 441 507 30,600 1,011 Climbing FlightAware
Sun 12:15:22 PM -34.5640 -60.0220 271° West 445 512 31,200 1,275 Climbing FlightAware
Sun 12:16:07 PM -34.5610 -60.1350 272° West 442 509 32,300 1,533 Climbing FlightAware
Sun 12:16:52 PM -34.5580 -60.2470 272° West 434 499 33,500 1,341 Climbing FlightAware
Sun 12:17:32 PM -34.5560 -60.3450 271° West 435 501 34,200 1,200 Climbing FlightAware
Sun 12:18:17 PM -34.5540 -60.4570 271° West 428 493 35,200 1,200 Climbing FlightAware
Sun 12:18:57 PM -34.5510 -60.5550 272° West 423 487 35,900 565 Climbing FlightAware
Sun 12:19:42 PM -34.5490 -60.6520 271° West 423 487 36,000 75 Climbing FlightAware
Sun 12:20:17 PM -34.5470 -60.7350 272° West 420 483 36,000  Level FlightAware
Sun 12:21:07 PM -34.5440 -60.8470 272° West 423 487 36,000  Level FlightAware
Sun 12:21:42 PM -34.5400 -60.9370 273° West 426 490 36,000  Level FlightAware
Sun 12:22:27 PM -34.5250 -61.0390 280° West 433 498 36,000  Level FlightAware
Sun 12:23:17 PM -34.5070 -61.1600 280° West 432 497 36,000  Level FlightAware
Sun 12:24:02 PM -34.4890 -61.2710 281° West 431 496 36,000  Level FlightAware
Sun 12:24:47 PM -34.4730 -61.3760 280° West 431 496 36,000  Level FlightAware
Sun 12:25:32 PM -34.4560 -61.4840 281° West 432 497 36,000  Level FlightAware
Sun 12:26:17 PM -34.4400 -61.5890 280° West 432 497 36,000  Level FlightAware
Sun 12:26:57 PM -34.4280 -61.6700 280° West 432 497 36,000  Level FlightAware
Sun 12:27:37 PM -34.4160 -61.7510 280° West 432 497 36,000  Level FlightAware
Sun 12:28:17 PM -34.4040 -61.8320 280° West 432 497 36,000  Level FlightAware
Sun 12:28:57 PM -34.3920 -61.9130 280° West 432 497 36,000  Level FlightAware
Sun 12:29:27 PM -34.3840 -61.9740 279° West 432 497 36,000  Level FlightAware
Sun 12:30:07 PM -34.3720 -62.0550 280° West 432 497 36,000  Level FlightAware
Sun 12:30:37 PM -34.3630 -62.1160 280° West 432 497 36,000  Level FlightAware
Sun 12:31:07 PM -34.3540 -62.1770 280° West 432 497 36,000  Level FlightAware
Sun 12:31:37 PM -34.3450 -62.2380 280° West 432 497 36,000  Level FlightAware
Sun 12:32:07 PM -34.3360 -62.2980 280° West 432 497 36,000  Level FlightAware
Sun 12:33:07 PM -34.3190 -62.4200 280° West 432 497 36,000  Level FlightAware
Sun 12:33:37 PM -34.3100 -62.4810 280° West 432 497 36,000  Level FlightAware
Sun 12:34:17 PM -34.2980 -62.5620 280° West 432 497 36,000  Level FlightAware
Sun 12:34:47 PM -34.2890 -62.6230 280° West 432 497 36,000  Level FlightAware
Sun 12:35:27 PM -34.2770 -62.7040 280° West 432 497 36,000  Level FlightAware
Sun 12:37:47 PM -34.1630 -63.2380 284° West 431 496 36,000  Level FlightAware
Sun 12:38:27 PM -34.1490 -63.3200 282° West 431 496 36,000  Level FlightAware
Sun 12:39:17 PM -34.1330 -63.4200 281° West 431 496 36,000  Level FlightAware
Sun 12:40:07 PM -34.1170 -63.5210 281° West 431 496 36,000  Level FlightAware
Sun 12:40:47 PM -34.1040 -63.6010 281° West 431 496 36,000  Level FlightAware
Sun 12:41:27 PM -34.0910 -63.6820 281° West 431 496 36,000  Level FlightAware
Sun 12:41:57 PM -34.0810 -63.7420 281° West 431 496 36,000  Level FlightAware
Sun 12:42:42 PM -34.0290 -63.9320 288° West 440 506 36,000  Level FlightAware
Sun 12:43:17 PM -34.0140 -64.0070 284° West 440 506 36,000  Level FlightAware
Sun 12:43:52 PM -33.9950 -64.0970 284° West 436 502 36,000  Level FlightAware
Sun 12:44:37 PM -33.9770 -64.1920 283° West 436 502 36,000  Level FlightAware
Sun 12:45:17 PM -33.9620 -64.2720 283° West 436 502 36,000  Level FlightAware
Sun 12:45:57 PM -33.9460 -64.3530 283° West 436 502 36,000  Level FlightAware
Sun 12:46:27 PM -33.9350 -64.4130 282° West 436 502 36,000  Level FlightAware
Sun 12:47:02 PM -33.9040 -64.5450 286° West 437 503 36,000  Level FlightAware
Sun 12:47:47 PM -33.8860 -64.6400 283° West 437 503 36,000  Level FlightAware
Sun 12:48:32 PM -33.8600 -64.7570 285° West 440 506 36,000  Level FlightAware
Sun 12:49:07 PM -33.8450 -64.8320 284° West 440 506 36,000  Level FlightAware
Sun 12:49:47 PM -33.8280 -64.9130 284° West 440 506 36,000  Level FlightAware
Sun 12:50:37 PM -33.8070 -65.0140 284° West 440 506 36,000  Level FlightAware
Sun 12:53:00 PM -33.7962 -65.2343 273° West  Level Estimated
Sun 12:54:00 PM -33.7915 -65.3267 273° West  Level Estimated
Sun 12:55:00 PM -33.7868 -65.4191 273° West  Level Estimated
Sun 12:55:42 PM -33.6470 -65.7740 273° West 432 497 36,000  Level FlightAware
Sun 12:56:12 PM -33.6380 -65.8360 280° West 431 496 36,000  Level FlightAware
Sun 12:56:52 PM -33.6260 -65.9160 280° West 431 496 36,000  Level FlightAware
Sun 12:57:32 PM -33.6150 -65.9960 279° West 431 496 36,000  Level FlightAware
Sun 12:58:02 PM -33.6060 -66.0560 280° West 431 496 36,000  Level FlightAware
Sun 12:58:42 PM -33.5940 -66.1360 280° West 431 496 36,000  Level FlightAware
Sun 12:59:32 PM -33.5790 -66.2360 280° West 431 496 36,000  Level FlightAware
Sun 01:00:02 PM -33.5710 -66.2970 279° West 431 496 36,000  Level FlightAware
Sun 01:00:42 PM -33.5590 -66.3770 280° West 431 496 36,000  Level FlightAware
Sun 01:01:12 PM -33.5500 -66.4370 280° West 431 496 36,000  Level FlightAware
Sun 01:01:52 PM -33.5380 -66.5170 280° West 431 496 36,000  Level FlightAware
Sun 01:02:32 PM -33.5260 -66.5970 280° West 431 496 36,000  Level FlightAware
Sun 01:03:22 PM -33.5120 -66.6970 280° West 431 496 36,000  Level FlightAware
Sun 01:03:52 PM -33.5030 -66.7570 280° West 431 496 36,000  Level FlightAware
Sun 01:04:22 PM -33.4940 -66.8170 280° West 431 496 36,000  Level FlightAware
Sun 01:04:52 PM -33.4850 -66.8770 280° West 431 496 36,000  Level FlightAware
Sun 01:05:42 PM -33.4700 -66.9770 280° West 431 496 36,000 -400 Level FlightAware
Sun 01:08:00 PM -33.4688 -67.1891 270° West  Level Estimated
Sun 01:09:00 PM -33.4681 -67.2813 270° West  Level Estimated
Sun 01:10:00 PM -33.4674 -67.3735 271° West  Level Estimated
Sun 01:11:00 PM -33.4666 -67.4657 271° West  Level Estimated
Sun 01:12:00 PM -33.4658 -67.5580 271° West  Level Estimated
Sun 01:13:00 PM -33.4649 -67.6502 271° West  Level Estimated
Sun 01:14:00 PM -33.4639 -67.7424 271° West  Level Estimated
Sun 01:15:00 PM -33.4628 -67.8346 271° West  Level Estimated
Sun 01:16:00 PM -33.4617 -67.9268 271° West  Level Estimated
Sun 01:17:00 PM -33.4605 -68.0190 271° West  Level Estimated
Sun 01:18:00 PM -33.4593 -68.1112 271° West  Level Estimated
Sun 01:19:00 PM -33.4579 -68.2034 271° West  Level Estimated
Sun 01:20:00 PM -33.4565 -68.2955 271° West  Level Estimated
Sun 01:21:00 PM -33.4551 -68.3877 271° West  Level Estimated
Sun 01:22:00 PM -33.4535 -68.4799 271° West  Level Estimated
Sun 01:23:00 PM -33.4519 -68.5721 271° West  Level Estimated
Sun 01:24:00 PM -33.4503 -68.6643 271° West  Level Estimated
Sun 01:25:00 PM -33.4485 -68.7565 271° West  Level Estimated
Sun 01:26:00 PM -33.4467 -68.8486 271° West  Level Estimated
Sun 01:26:07 PM -32.8930 -69.9530 271° West 396 456 27,500  Level FlightAware
Sun 01:27:12 PM -32.8730 -70.1160 278° West 379 436 24,800 -2,526 Descending FlightAware
Sun 01:27:42 PM -32.8670 -70.1800 276° West 378 435 23,500 -1,650 Descending FlightAware
Sun 01:28:32 PM -32.8600 -70.2720 275° West 374 430 22,600 -2,211 Descending FlightAware
Sun 01:29:17 PM -32.8850 -70.3560 250° West 376 433 20,000 -6,554 Descending FlightAware
Sun 01:29:37 PM -32.9160 -70.4000 230° Southwest 388 447 15,500 -4,154 Descending FlightAware
Sun 01:30:22 PM -32.9440 -70.4790 247° West 388 447 15,500  Level FlightAware
Sun 01:31:02 PM -32.9680 -70.5460 247° West 388 447 15,500  Level FlightAware
Sun 01:31:32 PM -32.9860 -70.5960 247° West 388 447 15,500  Level FlightAware
Sun 01:32:12 PM -33.0100 -70.6630 247° West 388 447 15,500  Level FlightAware
Sun 01:32:52 PM -33.0340 -70.7300 247° West 388 447 15,500  Level FlightAware
Sun 01:33:32 PM -33.0580 -70.7970 247° West 388 447 15,500 -4,711 Level FlightAware
Sun 01:34:37 PM -33.1750 -70.7810 173° South 4,900 -6,695 Descending FlightAware
Sun 01:35:07 PM -33.1920 -70.7930 211° Southwest 214 246 4,900 -343 Level FlightAware
Sun 01:35:12 PM -33.2030 -70.7960 193° South 207 238 4,700 -857 Descending FlightAware
Sun 01:35:42 PM -33.2200 -70.7950 177° South 197 227 4,400 -873 Descending FlightAware
Sun 01:36:07 PM -33.2440 -70.7940 178° South 193 222 3,900 -800 Descending FlightAware
Sun 01:36:42 PM -33.2810 -70.7920 177° South 185 213 3,600 -711 Descending FlightAware
Sun 01:38:22 PM -33.3440 -70.7880 177° South 150 173 2,300 -780 Descending FlightAware

Login

Don't have an account? Register now (free) for customized features, flight alerts, and more!